Surgut, Russia
Current Conditions -  °F | °C
As of 2:00 AM on Monday 24 Nov 2014 (Local Time) from USRR Reporting Station
Clear Clear  
Wind Chill: -42°   Ceiling: Unl
Heat Index: -22°   Visibility: 4mi
Dew Point: -27°   Wind: 9mph
Humidity: 76%   Direction: 300°WNW
Pressure: 30.12"   Gusts: NA
Location:  61.25°N, 73.42°E
Report Text: USRR 232100Z 30004MPS 7000 SKC M30/M33 Q1020 NOSIG RMK QFE75925////45
Loading
Personal Weather Stations






























Interactive Weather Map New forecast layout! Learn more

10-Day Weather Forecast

Advertisements
Track Severe Weather on mobile